sensor_id;sensor_type;location;lat;lon;timestamp;P1;durP1;ratioP1;P2;durP2;ratioP2
64633;SDS011;51043;52.406;9.690;2022-11-25T00:01:09;33.43;;;11.60;;
64633;SDS011;51043;52.406;9.690;2022-11-25T00:03:38;24.93;;;11.67;;
64633;SDS011;51043;52.406;9.690;2022-11-25T00:06:09;34.37;;;11.37;;
64633;SDS011;51043;52.406;9.690;2022-11-25T00:08:38;32.30;;;12.10;;
64633;SDS011;51043;52.406;9.690;2022-11-25T00:11:06;31.70;;;10.87;;
64633;SDS011;51043;52.406;9.690;2022-11-25T00:13:33;27.60;;;9.93;;
64633;SDS011;51043;52.406;9.690;2022-11-25T00:16:04;23.07;;;10.10;;
64633;SDS011;51043;52.406;9.690;2022-11-25T00:18:36;28.93;;;9.50;;
64633;SDS011;51043;52.406;9.690;2022-11-25T00:21:06;23.23;;;9.70;;
64633;SDS011;51043;52.406;9.690;2022-11-25T00:23:34;21.30;;;9.23;;
64633;SDS011;51043;52.406;9.690;2022-11-25T00:26:05;22.53;;;8.60;;
64633;SDS011;51043;52.406;9.690;2022-11-25T00:28:37;20.70;;;7.13;;
64633;SDS011;51043;52.406;9.690;2022-11-25T00:31:05;23.67;;;8.00;;
64633;SDS011;51043;52.406;9.690;2022-11-25T00:33:38;27.83;;;7.43;;
64633;SDS011;51043;52.406;9.690;2022-11-25T00:36:06;19.60;;;7.67;;
64633;SDS011;51043;52.406;9.690;2022-11-25T00:38:39;21.67;;;6.60;;
64633;SDS011;51043;52.406;9.690;2022-11-25T00:41:06;20.97;;;7.00;;
64633;SDS011;51043;52.406;9.690;2022-11-25T00:43:52;31.07;;;8.00;;
64633;SDS011;51043;52.406;9.690;2022-11-25T00:46:37;20.77;;;7.20;;
64633;SDS011;51043;52.406;9.690;2022-11-25T00:49:05;17.53;;;7.23;;
64633;SDS011;51043;52.406;9.690;2022-11-25T00:51:32;26.77;;;7.63;;
64633;SDS011;51043;52.406;9.690;2022-11-25T00:53:59;26.40;;;8.50;;
64633;SDS011;51043;52.406;9.690;2022-11-25T00:56:26;17.70;;;7.00;;
64633;SDS011;51043;52.406;9.690;2022-11-25T00:58:56;20.57;;;6.77;;
64633;SDS011;51043;52.406;9.690;2022-11-25T01:01:23;20.67;;;7.20;;
64633;SDS011;51043;52.406;9.690;2022-11-25T01:03:50;19.43;;;6.50;;
64633;SDS011;51043;52.406;9.690;2022-11-25T01:06:19;18.57;;;6.63;;
64633;SDS011;51043;52.406;9.690;2022-11-25T01:08:46;22.43;;;6.90;;
64633;SDS011;51043;52.406;9.690;2022-11-25T01:11:14;18.03;;;6.43;;
64633;SDS011;51043;52.406;9.690;2022-11-25T01:13:43;16.23;;;6.07;;
64633;SDS011;51043;52.406;9.690;2022-11-25T01:16:11;24.17;;;6.77;;
64633;SDS011;51043;52.406;9.690;2022-11-25T01:18:40;22.27;;;7.30;;
64633;SDS011;51043;52.406;9.690;2022-11-25T01:21:09;19.40;;;6.67;;
64633;SDS011;51043;52.406;9.690;2022-11-25T01:23:38;22.50;;;6.47;;
64633;SDS011;51043;52.406;9.690;2022-11-25T01:26:07;21.03;;;6.77;;
64633;SDS011;51043;52.406;9.690;2022-11-25T01:28:36;21.37;;;6.73;;
64633;SDS011;51043;52.406;9.690;2022-11-25T01:31:04;21.50;;;6.63;;
64633;SDS011;51043;52.406;9.690;2022-11-25T01:33:33;20.17;;;6.60;;
64633;SDS011;51043;52.406;9.690;2022-11-25T01:36:01;26.17;;;7.23;;
64633;SDS011;51043;52.406;9.690;2022-11-25T01:38:28;28.17;;;7.60;;
64633;SDS011;51043;52.406;9.690;2022-11-25T01:40:56;21.30;;;7.20;;
64633;SDS011;51043;52.406;9.690;2022-11-25T01:43:23;20.73;;;7.10;;
64633;SDS011;51043;52.406;9.690;2022-11-25T01:45:51;18.30;;;6.33;;
64633;SDS011;51043;52.406;9.690;2022-11-25T01:48:40;24.63;;;7.40;;
64633;SDS011;51043;52.406;9.690;2022-11-25T01:51:22;21.77;;;6.50;;
64633;SDS011;51043;52.406;9.690;2022-11-25T01:53:49;22.93;;;6.77;;
64633;SDS011;51043;52.406;9.690;2022-11-25T01:56:18;20.20;;;6.70;;
64633;SDS011;51043;52.406;9.690;2022-11-25T01:58:46;19.93;;;7.13;;
64633;SDS011;51043;52.406;9.690;2022-11-25T02:01:14;26.07;;;6.77;;
64633;SDS011;51043;52.406;9.690;2022-11-25T02:03:44;23.37;;;7.23;;
64633;SDS011;51043;52.406;9.690;2022-11-25T02:08:49;24.60;;;7.03;;
64633;SDS011;51043;52.406;9.690;2022-11-25T02:11:28;21.53;;;6.80;;
64633;SDS011;51043;52.406;9.690;2022-11-25T02:13:57;23.20;;;7.10;;
64633;SDS011;51043;52.406;9.690;2022-11-25T02:16:25;26.30;;;7.23;;
64633;SDS011;51043;52.406;9.690;2022-11-25T02:18:52;24.67;;;7.83;;
64633;SDS011;51043;52.406;9.690;2022-11-25T02:21:22;19.37;;;7.60;;
64633;SDS011;51043;52.406;9.690;2022-11-25T02:24:01;18.57;;;6.33;;
64633;SDS011;51043;52.406;9.690;2022-11-25T02:26:33;28.43;;;7.90;;
64633;SDS011;51043;52.406;9.690;2022-11-25T02:29:00;22.73;;;6.03;;
64633;SDS011;51043;52.406;9.690;2022-11-25T02:31:28;17.23;;;5.57;;
64633;SDS011;51043;52.406;9.690;2022-11-25T02:33:55;16.50;;;4.90;;
64633;SDS011;51043;52.406;9.690;2022-11-25T02:36:22;23.47;;;5.37;;
64633;SDS011;51043;52.406;9.690;2022-11-25T02:38:50;22.70;;;5.57;;
64633;SDS011;51043;52.406;9.690;2022-11-25T02:41:26;21.67;;;4.90;;
64633;SDS011;51043;52.406;9.690;2022-11-25T02:44:02;22.53;;;5.00;;
64633;SDS011;51043;52.406;9.690;2022-11-25T02:46:29;22.17;;;5.33;;
64633;SDS011;51043;52.406;9.690;2022-11-25T02:49:00;20.00;;;5.03;;
64633;SDS011;51043;52.406;9.690;2022-11-25T02:51:33;21.70;;;5.27;;
64633;SDS011;51043;52.406;9.690;2022-11-25T02:54:01;18.27;;;5.00;;
64633;SDS011;51043;52.406;9.690;2022-11-25T02:56:29;19.23;;;4.80;;
64633;SDS011;51043;52.406;9.690;2022-11-25T02:58:58;24.47;;;4.70;;
64633;SDS011;51043;52.406;9.690;2022-11-25T03:01:27;19.33;;;5.70;;
64633;SDS011;51043;52.406;9.690;2022-11-25T03:03:56;21.03;;;5.50;;
64633;SDS011;51043;52.406;9.690;2022-11-25T03:06:25;15.23;;;4.30;;
64633;SDS011;51043;52.406;9.690;2022-11-25T03:08:53;26.53;;;5.03;;
64633;SDS011;51043;52.406;9.690;2022-11-25T03:11:20;24.00;;;4.93;;
64633;SDS011;51043;52.406;9.690;2022-11-25T03:14:08;20.03;;;4.03;;
64633;SDS011;51043;52.406;9.690;2022-11-25T03:16:35;24.87;;;6.67;;
64633;SDS011;51043;52.406;9.690;2022-11-25T03:19:03;19.00;;;4.67;;
64633;SDS011;51043;52.406;9.690;2022-11-25T03:21:30;17.80;;;4.53;;
64633;SDS011;51043;52.406;9.690;2022-11-25T03:23:58;19.20;;;4.70;;
64633;SDS011;51043;52.406;9.690;2022-11-25T03:26:25;23.37;;;4.50;;
64633;SDS011;51043;52.406;9.690;2022-11-25T03:28:52;20.77;;;4.33;;
64633;SDS011;51043;52.406;9.690;2022-11-25T03:31:19;14.97;;;4.70;;
64633;SDS011;51043;52.406;9.690;2022-11-25T03:33:46;18.60;;;4.67;;
64633;SDS011;51043;52.406;9.690;2022-11-25T03:36:13;16.70;;;4.57;;
64633;SDS011;51043;52.406;9.690;2022-11-25T03:38:40;17.03;;;4.40;;
64633;SDS011;51043;52.406;9.690;2022-11-25T03:41:06;22.00;;;4.67;;
64633;SDS011;51043;52.406;9.690;2022-11-25T03:43:33;17.60;;;4.20;;
64633;SDS011;51043;52.406;9.690;2022-11-25T03:46:01;19.67;;;4.67;;
64633;SDS011;51043;52.406;9.690;2022-11-25T03:48:28;19.87;;;5.00;;
64633;SDS011;51043;52.406;9.690;2022-11-25T03:50:55;18.57;;;4.70;;
64633;SDS011;51043;52.406;9.690;2022-11-25T03:53:23;16.20;;;4.17;;
64633;SDS011;51043;52.406;9.690;2022-11-25T03:55:51;20.30;;;4.87;;
64633;SDS011;51043;52.406;9.690;2022-11-25T03:58:20;18.10;;;5.03;;
64633;SDS011;51043;52.406;9.690;2022-11-25T04:00:50;17.70;;;4.00;;
64633;SDS011;51043;52.406;9.690;2022-11-25T04:03:16;24.90;;;5.13;;
64633;SDS011;51043;52.406;9.690;2022-11-25T04:05:43;18.27;;;5.03;;
64633;SDS011;51043;52.406;9.690;2022-11-25T04:08:13;25.40;;;5.30;;
64633;SDS011;51043;52.406;9.690;2022-11-25T04:10:42;15.43;;;3.97;;
64633;SDS011;51043;52.406;9.690;2022-11-25T04:13:10;20.47;;;4.40;;
64633;SDS011;51043;52.406;9.690;2022-11-25T04:15:44;13.93;;;5.80;;
64633;SDS011;51043;52.406;9.690;2022-11-25T04:18:14;17.30;;;5.17;;
64633;SDS011;51043;52.406;9.690;2022-11-25T04:20:42;17.03;;;4.30;;
64633;SDS011;51043;52.406;9.690;2022-11-25T04:23:11;18.70;;;4.53;;
64633;SDS011;51043;52.406;9.690;2022-11-25T04:25:44;19.23;;;5.23;;
64633;SDS011;51043;52.406;9.690;2022-11-25T04:28:22;18.63;;;4.87;;
64633;SDS011;51043;52.406;9.690;2022-11-25T04:30:49;16.03;;;4.40;;
64633;SDS011;51043;52.406;9.690;2022-11-25T04:33:16;17.50;;;4.77;;
64633;SDS011;51043;52.406;9.690;2022-11-25T04:35:46;25.40;;;4.83;;
64633;SDS011;51043;52.406;9.690;2022-11-25T04:38:13;17.90;;;4.60;;
64633;SDS011;51043;52.406;9.690;2022-11-25T04:40:40;19.33;;;4.53;;
64633;SDS011;51043;52.406;9.690;2022-11-25T04:43:13;18.83;;;4.80;;
64633;SDS011;51043;52.406;9.690;2022-11-25T04:45:47;15.10;;;4.27;;
64633;SDS011;51043;52.406;9.690;2022-11-25T04:48:32;21.13;;;5.77;;
64633;SDS011;51043;52.406;9.690;2022-11-25T04:50:59;20.60;;;4.70;;
64633;SDS011;51043;52.406;9.690;2022-11-25T04:53:26;18.60;;;4.27;;
64633;SDS011;51043;52.406;9.690;2022-11-25T04:55:53;16.00;;;4.37;;
64633;SDS011;51043;52.406;9.690;2022-11-25T04:58:20;20.00;;;4.97;;
64633;SDS011;51043;52.406;9.690;2022-11-25T05:01:07;16.93;;;4.60;;
64633;SDS011;51043;52.406;9.690;2022-11-25T05:03:37;17.40;;;4.37;;
64633;SDS011;51043;52.406;9.690;2022-11-25T05:06:05;20.57;;;5.73;;
64633;SDS011;51043;52.406;9.690;2022-11-25T05:08:35;18.50;;;5.10;;
64633;SDS011;51043;52.406;9.690;2022-11-25T05:11:02;20.83;;;4.83;;
64633;SDS011;51043;52.406;9.690;2022-11-25T05:13:29;24.87;;;4.80;;
64633;SDS011;51043;52.406;9.690;2022-11-25T05:15:57;18.17;;;4.77;;
64633;SDS011;51043;52.406;9.690;2022-11-25T05:18:25;22.70;;;5.40;;
64633;SDS011;51043;52.406;9.690;2022-11-25T05:20:52;17.53;;;4.77;;
64633;SDS011;51043;52.406;9.690;2022-11-25T05:23:20;16.97;;;4.77;;
64633;SDS011;51043;52.406;9.690;2022-11-25T05:25:47;18.20;;;4.90;;
64633;SDS011;51043;52.406;9.690;2022-11-25T05:28:37;24.57;;;4.97;;
64633;SDS011;51043;52.406;9.690;2022-11-25T05:31:04;17.83;;;5.07;;
64633;SDS011;51043;52.406;9.690;2022-11-25T05:33:31;14.13;;;4.03;;
64633;SDS011;51043;52.406;9.690;2022-11-25T05:35:59;17.63;;;4.70;;
64633;SDS011;51043;52.406;9.690;2022-11-25T05:38:45;21.67;;;5.27;;
64633;SDS011;51043;52.406;9.690;2022-11-25T05:41:17;16.33;;;4.53;;
64633;SDS011;51043;52.406;9.690;2022-11-25T05:43:45;21.53;;;4.97;;
64633;SDS011;51043;52.406;9.690;2022-11-25T05:46:13;22.77;;;6.70;;
64633;SDS011;51043;52.406;9.690;2022-11-25T05:48:47;20.33;;;4.57;;
64633;SDS011;51043;52.406;9.690;2022-11-25T05:51:18;22.43;;;5.83;;
64633;SDS011;51043;52.406;9.690;2022-11-25T05:53:46;18.60;;;4.87;;
64633;SDS011;51043;52.406;9.690;2022-11-25T05:56:13;23.27;;;5.17;;
64633;SDS011;51043;52.406;9.690;2022-11-25T05:59:00;16.40;;;4.43;;
64633;SDS011;51043;52.406;9.690;2022-11-25T06:01:40;17.37;;;5.07;;
64633;SDS011;51043;52.406;9.690;2022-11-25T06:04:08;23.03;;;4.83;;
64633;SDS011;51043;52.406;9.690;2022-11-25T06:06:37;21.10;;;5.30;;
64633;SDS011;51043;52.406;9.690;2022-11-25T06:09:04;19.93;;;4.83;;
64633;SDS011;51043;52.406;9.690;2022-11-25T06:11:31;19.13;;;4.77;;
64633;SDS011;51043;52.406;9.690;2022-11-25T06:13:58;21.57;;;4.93;;
64633;SDS011;51043;52.406;9.690;2022-11-25T06:16:25;19.40;;;5.53;;
64633;SDS011;51043;52.406;9.690;2022-11-25T06:19:02;22.30;;;4.60;;
64633;SDS011;51043;52.406;9.690;2022-11-25T06:21:32;18.17;;;4.23;;
64633;SDS011;51043;52.406;9.690;2022-11-25T06:23:59;20.80;;;5.63;;
64633;SDS011;51043;52.406;9.690;2022-11-25T06:26:26;19.83;;;4.60;;
64633;SDS011;51043;52.406;9.690;2022-11-25T06:28:54;20.93;;;5.10;;
64633;SDS011;51043;52.406;9.690;2022-11-25T06:31:23;18.17;;;4.50;;
64633;SDS011;51043;52.406;9.690;2022-11-25T06:34:15;16.17;;;4.33;;
64633;SDS011;51043;52.406;9.690;2022-11-25T06:36:42;18.60;;;5.43;;
64633;SDS011;51043;52.406;9.690;2022-11-25T06:39:09;17.17;;;4.23;;
64633;SDS011;51043;52.406;9.690;2022-11-25T06:41:36;16.53;;;4.87;;
64633;SDS011;51043;52.406;9.690;2022-11-25T06:44:03;19.03;;;4.97;;
64633;SDS011;51043;52.406;9.690;2022-11-25T06:46:29;18.27;;;4.63;;
64633;SDS011;51043;52.406;9.690;2022-11-25T06:48:58;16.93;;;4.47;;
64633;SDS011;51043;52.406;9.690;2022-11-25T06:51:29;18.53;;;5.10;;
64633;SDS011;51043;52.406;9.690;2022-11-25T06:53:55;18.17;;;5.10;;
64633;SDS011;51043;52.406;9.690;2022-11-25T06:56:23;16.00;;;4.47;;
64633;SDS011;51043;52.406;9.690;2022-11-25T06:58:52;22.80;;;5.10;;
64633;SDS011;51043;52.406;9.690;2022-11-25T07:01:25;21.70;;;5.27;;
64633;SDS011;51043;52.406;9.690;2022-11-25T07:03:54;21.67;;;6.17;;
64633;SDS011;51043;52.406;9.690;2022-11-25T07:06:28;21.97;;;5.50;;
64633;SDS011;51043;52.406;9.690;2022-11-25T07:08:56;27.07;;;4.87;;
64633;SDS011;51043;52.406;9.690;2022-11-25T07:11:24;20.53;;;5.17;;
64633;SDS011;51043;52.406;9.690;2022-11-25T07:14:06;18.30;;;5.17;;
64633;SDS011;51043;52.406;9.690;2022-11-25T07:16:37;15.47;;;5.10;;
64633;SDS011;51043;52.406;9.690;2022-11-25T07:19:06;17.23;;;5.43;;
64633;SDS011;51043;52.406;9.690;2022-11-25T07:21:33;22.27;;;5.40;;
64633;SDS011;51043;52.406;9.690;2022-11-25T07:24:02;25.27;;;5.17;;
64633;SDS011;51043;52.406;9.690;2022-11-25T07:26:34;22.60;;;5.43;;
64633;SDS011;51043;52.406;9.690;2022-11-25T07:29:05;22.37;;;5.33;;
64633;SDS011;51043;52.406;9.690;2022-11-25T07:31:44;23.57;;;5.17;;
64633;SDS011;51043;52.406;9.690;2022-11-25T07:34:15;26.00;;;5.80;;
64633;SDS011;51043;52.406;9.690;2022-11-25T07:36:44;17.40;;;5.10;;
64633;SDS011;51043;52.406;9.690;2022-11-25T07:39:15;21.50;;;5.87;;
64633;SDS011;51043;52.406;9.690;2022-11-25T07:41:44;18.83;;;5.47;;
64633;SDS011;51043;52.406;9.690;2022-11-25T07:44:13;22.60;;;5.37;;
64633;SDS011;51043;52.406;9.690;2022-11-25T07:46:47;22.10;;;5.87;;
64633;SDS011;51043;52.406;9.690;2022-11-25T07:49:20;23.17;;;5.90;;
64633;SDS011;51043;52.406;9.690;2022-11-25T07:51:50;22.77;;;5.60;;
64633;SDS011;51043;52.406;9.690;2022-11-25T07:54:22;17.60;;;5.83;;
64633;SDS011;51043;52.406;9.690;2022-11-25T07:56:49;22.33;;;5.40;;
64633;SDS011;51043;52.406;9.690;2022-11-25T07:59:17;27.87;;;5.27;;
64633;SDS011;51043;52.406;9.690;2022-11-25T08:01:50;17.93;;;5.50;;
64633;SDS011;51043;52.406;9.690;2022-11-25T08:04:20;17.77;;;4.87;;
64633;SDS011;51043;52.406;9.690;2022-11-25T08:06:49;20.33;;;4.80;;
64633;SDS011;51043;52.406;9.690;2022-11-25T08:09:18;20.03;;;5.43;;
64633;SDS011;51043;52.406;9.690;2022-11-25T08:11:47;23.43;;;5.23;;
64633;SDS011;51043;52.406;9.690;2022-11-25T08:14:14;21.57;;;4.93;;
64633;SDS011;51043;52.406;9.690;2022-11-25T08:16:42;18.67;;;4.67;;
64633;SDS011;51043;52.406;9.690;2022-11-25T08:19:11;15.90;;;4.97;;
64633;SDS011;51043;52.406;9.690;2022-11-25T08:21:40;15.10;;;4.40;;
64633;SDS011;51043;52.406;9.690;2022-11-25T08:24:08;18.67;;;5.07;;
64633;SDS011;51043;52.406;9.690;2022-11-25T08:26:41;16.40;;;4.73;;
64633;SDS011;51043;52.406;9.690;2022-11-25T08:29:09;25.07;;;5.27;;
64633;SDS011;51043;52.406;9.690;2022-11-25T08:31:38;20.60;;;5.37;;
64633;SDS011;51043;52.406;9.690;2022-11-25T08:34:05;17.43;;;4.63;;
64633;SDS011;51043;52.406;9.690;2022-11-25T08:36:34;23.47;;;5.00;;
64633;SDS011;51043;52.406;9.690;2022-11-25T08:39:03;20.00;;;4.97;;
64633;SDS011;51043;52.406;9.690;2022-11-25T08:41:42;16.30;;;4.77;;
64633;SDS011;51043;52.406;9.690;2022-11-25T08:44:09;19.40;;;4.97;;
64633;SDS011;51043;52.406;9.690;2022-11-25T08:46:38;25.57;;;5.33;;
64633;SDS011;51043;52.406;9.690;2022-11-25T08:49:06;18.27;;;4.73;;
64633;SDS011;51043;52.406;9.690;2022-11-25T08:51:36;19.90;;;4.80;;
64633;SDS011;51043;52.406;9.690;2022-11-25T08:54:05;20.67;;;4.83;;
64633;SDS011;51043;52.406;9.690;2022-11-25T08:56:33;19.97;;;4.93;;
64633;SDS011;51043;52.406;9.690;2022-11-25T08:59:00;21.40;;;5.07;;
64633;SDS011;51043;52.406;9.690;2022-11-25T09:01:27;23.27;;;4.77;;
64633;SDS011;51043;52.406;9.690;2022-11-25T09:03:55;14.53;;;4.20;;
64633;SDS011;51043;52.406;9.690;2022-11-25T09:06:24;17.63;;;4.80;;
64633;SDS011;51043;52.406;9.690;2022-11-25T09:08:56;17.23;;;5.10;;
64633;SDS011;51043;52.406;9.690;2022-11-25T09:11:24;22.43;;;5.80;;
64633;SDS011;51043;52.406;9.690;2022-11-25T09:13:51;14.50;;;4.77;;
64633;SDS011;51043;52.406;9.690;2022-11-25T09:16:18;21.07;;;6.30;;
64633;SDS011;51043;52.406;9.690;2022-11-25T09:18:46;18.83;;;5.13;;
64633;SDS011;51043;52.406;9.690;2022-11-25T09:21:16;21.23;;;5.13;;
64633;SDS011;51043;52.406;9.690;2022-11-25T09:23:44;24.40;;;5.07;;
64633;SDS011;51043;52.406;9.690;2022-11-25T09:26:17;20.20;;;5.53;;
64633;SDS011;51043;52.406;9.690;2022-11-25T09:28:50;23.17;;;5.57;;
64633;SDS011;51043;52.406;9.690;2022-11-25T09:31:17;24.63;;;4.93;;
64633;SDS011;51043;52.406;9.690;2022-11-25T09:33:44;24.47;;;6.80;;
64633;SDS011;51043;52.406;9.690;2022-11-25T09:36:12;17.60;;;5.53;;
64633;SDS011;51043;52.406;9.690;2022-11-25T09:38:41;31.00;;;5.47;;
64633;SDS011;51043;52.406;9.690;2022-11-25T09:47:25;21.87;;;5.90;;
64633;SDS011;51043;52.406;9.690;2022-11-25T09:55:48;29.03;;;6.50;;
64633;SDS011;51043;52.406;9.690;2022-11-25T09:58:24;25.57;;;6.33;;
64633;SDS011;51043;52.406;9.690;2022-11-25T10:01:05;24.50;;;5.80;;
64633;SDS011;51043;52.406;9.690;2022-11-25T10:03:38;25.47;;;6.07;;
64633;SDS011;51043;52.406;9.690;2022-11-25T10:06:16;28.93;;;7.00;;
64633;SDS011;51043;52.406;9.690;2022-11-25T10:08:47;18.37;;;6.23;;
64633;SDS011;51043;52.406;9.690;2022-11-25T10:16:56;18.47;;;6.23;;
64633;SDS011;51043;52.406;9.690;2022-11-25T10:19:21;26.63;;;6.57;;
64633;SDS011;51043;52.406;9.690;2022-11-25T10:21:55;21.30;;;6.83;;
64633;SDS011;51043;52.406;9.690;2022-11-25T10:24:22;26.93;;;7.30;;
64633;SDS011;51043;52.406;9.690;2022-11-25T10:26:56;35.63;;;7.17;;
64633;SDS011;51043;52.406;9.690;2022-11-25T10:29:27;22.13;;;6.83;;
64633;SDS011;51043;52.406;9.690;2022-11-25T10:31:58;23.10;;;6.70;;
64633;SDS011;51043;52.406;9.690;2022-11-25T10:34:41;27.47;;;7.07;;
64633;SDS011;51043;52.406;9.690;2022-11-25T10:37:22;23.50;;;7.83;;
64633;SDS011;51043;52.406;9.690;2022-11-25T10:40:02;31.90;;;7.53;;
64633;SDS011;51043;52.406;9.690;2022-11-25T10:42:29;27.33;;;6.93;;
64633;SDS011;51043;52.406;9.690;2022-11-25T10:44:57;23.03;;;7.37;;
64633;SDS011;51043;52.406;9.690;2022-11-25T10:50:12;22.13;;;7.63;;
64633;SDS011;51043;52.406;9.690;2022-11-25T10:53:09;23.47;;;7.20;;
64633;SDS011;51043;52.406;9.690;2022-11-25T10:55:55;22.93;;;7.77;;
64633;SDS011;51043;52.406;9.690;2022-11-25T10:58:27;29.67;;;8.43;;
64633;SDS011;51043;52.406;9.690;2022-11-25T11:03:43;26.23;;;8.97;;
64633;SDS011;51043;52.406;9.690;2022-11-25T11:06:32;27.83;;;8.43;;
64633;SDS011;51043;52.406;9.690;2022-11-25T11:09:02;19.60;;;7.13;;
64633;SDS011;51043;52.406;9.690;2022-11-25T11:11:30;22.60;;;8.83;;
64633;SDS011;51043;52.406;9.690;2022-11-25T11:14:19;28.33;;;7.23;;
64633;SDS011;51043;52.406;9.690;2022-11-25T11:16:55;24.47;;;7.80;;
64633;SDS011;51043;52.406;9.690;2022-11-25T11:19:23;24.73;;;7.43;;
64633;SDS011;51043;52.406;9.690;2022-11-25T11:21:55;20.43;;;7.43;;
64633;SDS011;51043;52.406;9.690;2022-11-25T11:24:39;19.80;;;7.27;;
64633;SDS011;51043;52.406;9.690;2022-11-25T11:30:07;21.90;;;7.33;;
64633;SDS011;51043;52.406;9.690;2022-11-25T11:32:35;26.17;;;6.67;;
64633;SDS011;51043;52.406;9.690;2022-11-25T11:37:50;16.60;;;6.60;;
64633;SDS011;51043;52.406;9.690;2022-11-25T11:45:44;20.83;;;7.13;;
64633;SDS011;51043;52.406;9.690;2022-11-25T11:51:11;24.87;;;7.27;;
64633;SDS011;51043;52.406;9.690;2022-11-25T11:56:41;19.00;;;7.07;;
64633;SDS011;51043;52.406;9.690;2022-11-25T12:04:53;17.63;;;6.57;;
64633;SDS011;51043;52.406;9.690;2022-11-25T12:07:25;16.37;;;6.33;;
64633;SDS011;51043;52.406;9.690;2022-11-25T12:10:21;19.47;;;6.20;;
64633;SDS011;51043;52.406;9.690;2022-11-25T12:13:07;16.60;;;6.33;;
64633;SDS011;51043;52.406;9.690;2022-11-25T12:16:04;20.03;;;7.33;;
64633;SDS011;51043;52.406;9.690;2022-11-25T12:21:05;20.77;;;7.50;;
64633;SDS011;51043;52.406;9.690;2022-11-25T12:26:31;17.03;;;7.07;;
64633;SDS011;51043;52.406;9.690;2022-11-25T12:29:07;18.20;;;6.57;;
64633;SDS011;51043;52.406;9.690;2022-11-25T12:31:45;19.37;;;6.93;;
64633;SDS011;51043;52.406;9.690;2022-11-25T12:34:32;23.77;;;7.17;;
64633;SDS011;51043;52.406;9.690;2022-11-25T12:37:06;17.73;;;6.10;;
64633;SDS011;51043;52.406;9.690;2022-11-25T12:39:45;14.27;;;5.90;;
64633;SDS011;51043;52.406;9.690;2022-11-25T12:42:21;15.67;;;5.83;;
64633;SDS011;51043;52.406;9.690;2022-11-25T12:47:48;15.53;;;5.60;;
64633;SDS011;51043;52.406;9.690;2022-11-25T12:50:19;18.33;;;7.00;;
64633;SDS011;51043;52.406;9.690;2022-11-25T12:55:25;10.93;;;5.00;;
64633;SDS011;51043;52.406;9.690;2022-11-25T12:58:05;15.10;;;5.27;;
64633;SDS011;51043;52.406;9.690;2022-11-25T13:15:23;13.50;;;4.90;;
64633;SDS011;51043;52.406;9.690;2022-11-25T13:18:14;12.87;;;5.17;;
64633;SDS011;51043;52.406;9.690;2022-11-25T13:20:45;12.00;;;5.17;;
64633;SDS011;51043;52.406;9.690;2022-11-25T13:25:45;11.77;;;4.50;;
64633;SDS011;51043;52.406;9.690;2022-11-25T13:28:33;12.63;;;4.30;;
64633;SDS011;51043;52.406;9.690;2022-11-25T13:36:21;10.13;;;4.77;;
64633;SDS011;51043;52.406;9.690;2022-11-25T13:39:27;13.90;;;4.67;;
64633;SDS011;51043;52.406;9.690;2022-11-25T13:42:12;11.03;;;4.40;;
64633;SDS011;51043;52.406;9.690;2022-11-25T13:47:23;13.60;;;5.43;;
64633;SDS011;51043;52.406;9.690;2022-11-25T13:49:55;13.30;;;5.30;;
64633;SDS011;51043;52.406;9.690;2022-11-25T13:52:32;10.00;;;5.10;;
64633;SDS011;51043;52.406;9.690;2022-11-25T13:55:07;15.60;;;5.17;;
64633;SDS011;51043;52.406;9.690;2022-11-25T13:58:34;17.50;;;5.43;;
64633;SDS011;51043;52.406;9.690;2022-11-25T14:17:36;16.17;;;5.77;;
64633;SDS011;51043;52.406;9.690;2022-11-25T14:25:56;16.97;;;6.13;;
64633;SDS011;51043;52.406;9.690;2022-11-25T14:28:26;18.87;;;6.13;;
64633;SDS011;51043;52.406;9.690;2022-11-25T14:31:06;13.97;;;6.07;;
64633;SDS011;51043;52.406;9.690;2022-11-25T14:33:37;12.87;;;6.13;;
64633;SDS011;51043;52.406;9.690;2022-11-25T14:36:16;15.47;;;6.10;;
64633;SDS011;51043;52.406;9.690;2022-11-25T14:38:59;19.47;;;6.83;;
64633;SDS011;51043;52.406;9.690;2022-11-25T14:41:33;11.47;;;5.90;;
64633;SDS011;51043;52.406;9.690;2022-11-25T14:44:23;15.90;;;6.60;;
64633;SDS011;51043;52.406;9.690;2022-11-25T14:46:56;18.97;;;6.80;;
64633;SDS011;51043;52.406;9.690;2022-11-25T14:49:24;18.40;;;6.77;;
64633;SDS011;51043;52.406;9.690;2022-11-25T14:52:27;17.13;;;6.57;;
64633;SDS011;51043;52.406;9.690;2022-11-25T14:55:00;18.93;;;7.53;;
64633;SDS011;51043;52.406;9.690;2022-11-25T14:57:29;15.03;;;7.03;;
64633;SDS011;51043;52.406;9.690;2022-11-25T15:00:04;18.60;;;7.20;;
64633;SDS011;51043;52.406;9.690;2022-11-25T15:02:34;19.37;;;7.37;;
64633;SDS011;51043;52.406;9.690;2022-11-25T15:05:13;19.50;;;8.83;;
64633;SDS011;51043;52.406;9.690;2022-11-25T15:13:31;20.53;;;8.40;;
64633;SDS011;51043;52.406;9.690;2022-11-25T15:19:04;17.77;;;8.93;;
64633;SDS011;51043;52.406;9.690;2022-11-25T15:21:38;18.33;;;10.07;;
64633;SDS011;51043;52.406;9.690;2022-11-25T15:24:23;22.83;;;9.43;;
64633;SDS011;51043;52.406;9.690;2022-11-25T15:26:57;22.20;;;10.23;;
64633;SDS011;51043;52.406;9.690;2022-11-25T15:29:26;21.00;;;10.00;;
64633;SDS011;51043;52.406;9.690;2022-11-25T15:31:56;21.27;;;10.90;;
64633;SDS011;51043;52.406;9.690;2022-11-25T15:34:25;23.07;;;12.40;;
64633;SDS011;51043;52.406;9.690;2022-11-25T15:36:55;25.17;;;11.90;;
64633;SDS011;51043;52.406;9.690;2022-11-25T15:39:30;21.80;;;11.90;;
64633;SDS011;51043;52.406;9.690;2022-11-25T15:44:58;21.70;;;11.50;;
64633;SDS011;51043;52.406;9.690;2022-11-25T15:47:33;21.90;;;11.63;;
64633;SDS011;51043;52.406;9.690;2022-11-25T15:50:02;21.43;;;12.30;;
64633;SDS011;51043;52.406;9.690;2022-11-25T15:52:36;23.63;;;12.23;;
64633;SDS011;51043;52.406;9.690;2022-11-25T15:58:05;21.90;;;12.13;;
64633;SDS011;51043;52.406;9.690;2022-11-25T16:00:41;17.07;;;11.50;;
64633;SDS011;51043;52.406;9.690;2022-11-25T16:03:29;23.80;;;12.97;;
64633;SDS011;51043;52.406;9.690;2022-11-25T16:06:00;20.20;;;12.00;;
64633;SDS011;51043;52.406;9.690;2022-11-25T16:08:35;23.53;;;12.77;;
64633;SDS011;51043;52.406;9.690;2022-11-25T16:11:09;23.23;;;15.23;;
64633;SDS011;51043;52.406;9.690;2022-11-25T16:13:47;29.80;;;16.57;;
64633;SDS011;51043;52.406;9.690;2022-11-25T16:16:16;22.60;;;15.37;;
64633;SDS011;51043;52.406;9.690;2022-11-25T16:29:00;26.17;;;15.87;;
64633;SDS011;51043;52.406;9.690;2022-11-25T16:31:33;26.97;;;16.03;;
64633;SDS011;51043;52.406;9.690;2022-11-25T16:34:08;29.87;;;16.20;;
64633;SDS011;51043;52.406;9.690;2022-11-25T16:36:47;33.17;;;15.60;;
64633;SDS011;51043;52.406;9.690;2022-11-25T16:39:13;32.60;;;17.77;;
64633;SDS011;51043;52.406;9.690;2022-11-25T16:41:41;26.67;;;15.53;;
64633;SDS011;51043;52.406;9.690;2022-11-25T16:44:18;29.90;;;16.97;;
64633;SDS011;51043;52.406;9.690;2022-11-25T16:46:47;23.90;;;13.90;;
64633;SDS011;51043;52.406;9.690;2022-11-25T16:49:18;55.43;;;36.70;;
64633;SDS011;51043;52.406;9.690;2022-11-25T16:51:49;43.70;;;27.77;;
64633;SDS011;51043;52.406;9.690;2022-11-25T16:54:16;33.50;;;22.17;;
64633;SDS011;51043;52.406;9.690;2022-11-25T16:56:45;29.50;;;18.77;;
64633;SDS011;51043;52.406;9.690;2022-11-25T16:59:37;157.10;;;91.83;;
64633;SDS011;51043;52.406;9.690;2022-11-25T17:02:17;69.63;;;40.83;;
64633;SDS011;51043;52.406;9.690;2022-11-25T17:04:47;60.70;;;38.83;;
64633;SDS011;51043;52.406;9.690;2022-11-25T17:07:15;42.33;;;26.70;;
64633;SDS011;51043;52.406;9.690;2022-11-25T17:09:57;37.17;;;22.43;;
64633;SDS011;51043;52.406;9.690;2022-11-25T17:12:26;36.20;;;25.77;;